world map with SBAX marked

SBAX - Airport

This information may not be accurate or current and is not valid for navigation or flight planning. No warranty of fitness for any purpose is made or implied.

flag of Minas Geraisflag of Brazil

Donate via PayPal

Additional information is available on the NEW Great Circle Mapper

Location
City:  Araxß, Minas Gerais, Brazil
ICAO / IATA:SBAX / AAX

Details
Type:Airport (Aerodrome, Airfield)
Latitude:19░33'48"S (-19.563246)
Longitude:46░57'37"W (-46.960357)
Datum:WGS 1984
Elevation:3276 ft (999 m)
Runways:1
Longest:6234 × 98 ft (1900 × 30 m)

Time
Timezone:UTC+31:08 (DST+34:08)
Local Time:

Weather
METAR:SBAX  041300Z 08006KT 9999 SCT045 24/17 Q1020
TAF:SBAX  (expired)

Related Locations
Nearby:
Farthest:MMD: 11984 mi / 19286 km
Minamidaito [Minami Daito Airport], Minamidaito Jima, 47, JP

Find:

   beyond  
but within

Other Information
Maps:
Sources:

  


 


Great Circle Mapper   Great Circle Mapper
Great Circle Mapper FAQ   Great Circle Mapper FAQ
  Karl's Home Page
KLS▓   KLS▓ Home
   GC on Facebook
Airlines of the World   Airlines of the World
Donate via PayPal


Copyright © 2004-2019, Karl L. Swartz. All rights reserved.
All trademarks mentioned herein belong to their respective owners.

Please see credits for attribution and copyright information.

Karl Swartz <karl@kls2.com>
  Powered by FreeBSD
Valid HTML 4.01!
Labeled with ICRA
hCard Microformat
Geo Microformat